createdAt,value
2023-09-10T00:00:41.987Z,100767.00
2023-09-10T00:03:09.313Z,100762.00
2023-09-10T00:05:36.661Z,100759.00
2023-09-10T00:08:04.982Z,100767.00
2023-09-10T00:10:35.262Z,100760.00
2023-09-10T00:13:04.634Z,100763.00
2023-09-10T00:15:32.167Z,100758.00
2023-09-10T00:17:59.380Z,100757.00
2023-09-10T00:20:28.484Z,100755.00
2023-09-10T00:22:58.108Z,100755.00
2023-09-10T00:25:26.216Z,100744.00
2023-09-10T00:27:53.921Z,100754.00
2023-09-10T00:30:21.238Z,100743.00
2023-09-10T00:32:48.470Z,100745.00
2023-09-10T00:35:16.127Z,100733.00
2023-09-10T00:37:43.365Z,100735.00
2023-09-10T00:40:11.452Z,100737.00
2023-09-10T00:42:39.386Z,100733.00
2023-09-10T00:45:10.476Z,100730.00
2023-09-10T00:47:47.311Z,100738.00
2023-09-10T00:50:19.011Z,100734.00
2023-09-10T00:52:56.362Z,100733.00
2023-09-10T00:55:25.760Z,100739.00
2023-09-10T00:57:53.810Z,100728.00
2023-09-10T01:00:23.192Z,100735.00
2023-09-10T01:02:51.150Z,100728.00
2023-09-10T01:05:19.073Z,100738.00
2023-09-10T01:07:47.007Z,100736.00
2023-09-10T01:10:15.028Z,100728.00
2023-09-10T01:12:56.022Z,100731.00
2023-09-10T01:15:52.197Z,100736.00
2023-09-10T01:18:31.466Z,100725.00
2023-09-10T01:21:37.435Z,100733.00
2023-09-10T01:24:41.108Z,100720.00
2023-09-10T01:27:08.460Z,100726.00
2023-09-10T01:29:35.739Z,100709.00
2023-09-10T01:32:18.119Z,100716.00
2023-09-10T01:35:00.112Z,100702.00
2023-09-10T01:37:46.504Z,100699.00
2023-09-10T01:40:21.989Z,100720.00
2023-09-10T01:42:52.238Z,100709.00
2023-09-10T01:45:20.815Z,100715.00
2023-09-10T01:47:48.334Z,100712.00
2023-09-10T01:50:17.067Z,100712.00
2023-09-10T01:52:44.222Z,100708.00
2023-09-10T01:55:11.291Z,100716.00
2023-09-10T01:57:38.407Z,100710.00
2023-09-10T02:00:09.208Z,100708.00
2023-09-10T02:02:36.494Z,100697.00
2023-09-10T02:05:04.018Z,100701.00
2023-09-10T02:07:31.315Z,100708.00
2023-09-10T02:09:59.698Z,100703.00
2023-09-10T02:12:26.751Z,100703.00
2023-09-10T02:14:54.095Z,100697.00
2023-09-10T02:17:21.162Z,100694.00
2023-09-10T02:19:49.010Z,100702.00
2023-09-10T02:22:16.220Z,100701.00
2023-09-10T02:24:43.272Z,100706.00
2023-09-10T02:27:10.364Z,100702.00
2023-09-10T02:29:37.474Z,100699.00
2023-09-10T02:32:04.711Z,100693.00
2023-09-10T02:34:32.594Z,100660.00
2023-09-10T02:37:00.925Z,100707.00
2023-09-10T02:39:28.608Z,100699.00
2023-09-10T02:41:55.732Z,100702.00
2023-09-10T02:44:22.845Z,100700.00
2023-09-10T02:46:49.988Z,100699.00
2023-09-10T02:49:18.879Z,100703.00
2023-09-10T02:51:46.100Z,100699.00
2023-09-10T02:54:13.453Z,100695.00
2023-09-10T02:56:40.757Z,100692.00
2023-09-10T02:59:07.977Z,100687.00
2023-09-10T03:01:35.270Z,100690.00
2023-09-10T03:04:02.515Z,100695.00
2023-09-10T03:06:29.605Z,100676.00
2023-09-10T03:08:57.107Z,100687.00
2023-09-10T03:11:24.108Z,100559.00
2023-09-10T03:13:51.284Z,100690.00
2023-09-10T03:16:18.409Z,100685.00
2023-09-10T03:18:45.934Z,100683.00
2023-09-10T03:21:13.104Z,100671.00
2023-09-10T03:23:40.223Z,100686.00
2023-09-10T03:26:13.469Z,100680.00
2023-09-10T03:28:42.475Z,100679.00
2023-09-10T03:31:09.721Z,100672.00
2023-09-10T03:33:37.762Z,100676.00
2023-09-10T03:36:07.187Z,100679.00
2023-09-10T03:38:34.464Z,100669.00
2023-09-10T03:41:01.663Z,100673.00
2023-09-10T03:43:28.643Z,100664.00
2023-09-10T03:45:56.758Z,100673.00
2023-09-10T03:48:23.957Z,100670.00
2023-09-10T03:50:50.965Z,100668.00
2023-09-10T03:53:18.542Z,100660.00
2023-09-10T03:55:45.798Z,100662.00
2023-09-10T03:58:12.919Z,100659.00
2023-09-10T04:00:40.022Z,100657.00
2023-09-10T04:03:07.315Z,100670.00
2023-09-10T04:05:34.484Z,100662.00
2023-09-10T04:08:01.509Z,100652.00
2023-09-10T04:10:28.820Z,100660.00
2023-09-10T04:12:55.881Z,100664.00
2023-09-10T04:15:22.967Z,100656.00
2023-09-10T04:17:50.259Z,100661.00
2023-09-10T04:20:17.686Z,100656.00
2023-09-10T04:22:44.759Z,100665.00
2023-09-10T04:25:11.790Z,100665.00
2023-09-10T04:27:39.223Z,100661.00
2023-09-10T04:30:07.871Z,100669.00
2023-09-10T04:32:35.213Z,100664.00
2023-09-10T04:35:06.553Z,100666.00
2023-09-10T04:37:35.458Z,100664.00
2023-09-10T04:40:07.987Z,100654.00
2023-09-10T04:42:36.200Z,100663.00
2023-09-10T04:45:07.196Z,100639.00
2023-09-10T04:47:34.633Z,100654.00
2023-09-10T04:50:01.730Z,100666.00
2023-09-10T04:52:28.842Z,100662.00
2023-09-10T04:54:55.909Z,100668.00
2023-09-10T04:57:22.873Z,100664.00
2023-09-10T04:59:50.096Z,100655.00
2023-09-10T05:02:17.259Z,100666.00
2023-09-10T05:04:44.484Z,100674.00
2023-09-10T05:07:11.457Z,100685.00
2023-09-10T05:09:38.434Z,100664.00
2023-09-10T05:12:06.203Z,100698.00
2023-09-10T05:14:33.255Z,100672.00
2023-09-10T05:17:00.464Z,100684.00
2023-09-10T05:19:27.664Z,100681.00
2023-09-10T05:21:54.704Z,100672.00
2023-09-10T05:24:21.735Z,100674.00
2023-09-10T05:26:48.740Z,100674.00
2023-09-10T05:29:16.103Z,100672.00
2023-09-10T05:31:43.168Z,100675.00
2023-09-10T05:34:10.514Z,100671.00
2023-09-10T05:36:38.004Z,100673.00
2023-09-10T05:39:05.253Z,100672.00
2023-09-10T05:41:32.832Z,100675.00
2023-09-10T05:44:00.210Z,100672.00
2023-09-10T05:46:27.532Z,100675.00
2023-09-10T05:48:54.644Z,100666.00
2023-09-10T05:51:22.142Z,100678.00
2023-09-10T05:53:49.480Z,100676.00
2023-09-10T05:56:16.642Z,100687.00
2023-09-10T05:58:44.301Z,100687.00
2023-09-10T06:01:11.425Z,100686.00
2023-09-10T06:03:38.660Z,100679.00
2023-09-10T06:06:06.373Z,100680.00
2023-09-10T06:08:33.542Z,100614.00
2023-09-10T06:11:00.822Z,100683.00
2023-09-10T06:13:29.492Z,100680.00
2023-09-10T06:15:56.662Z,100688.00
2023-09-10T06:18:24.115Z,100680.00
2023-09-10T06:20:51.274Z,100679.00
2023-09-10T06:23:18.579Z,100670.00
2023-09-10T06:25:47.120Z,100671.00
2023-09-10T06:28:14.408Z,100672.00
2023-09-10T06:30:41.669Z,100675.00
2023-09-10T06:33:09.770Z,100671.00
2023-09-10T06:35:36.950Z,100677.00
2023-09-10T06:38:04.356Z,100672.00
2023-09-10T06:40:31.559Z,100674.00
2023-09-10T06:42:58.824Z,100673.00
2023-09-10T06:45:25.766Z,100676.00
2023-09-10T06:47:52.944Z,100678.00
2023-09-10T06:50:20.172Z,100672.00
2023-09-10T06:52:47.214Z,100674.00
2023-09-10T06:55:15.421Z,100674.00
2023-09-10T06:57:42.724Z,100668.00
2023-09-10T07:00:11.039Z,100682.00
2023-09-10T07:02:38.136Z,100684.00
2023-09-10T07:05:05.591Z,100679.00
2023-09-10T07:07:32.749Z,100682.00
2023-09-10T07:10:00.939Z,100679.00
2023-09-10T07:12:27.973Z,100675.00
2023-09-10T07:14:55.095Z,100682.00
2023-09-10T07:17:22.310Z,100683.00
2023-09-10T07:19:49.378Z,100685.00
2023-09-10T07:22:17.054Z,100677.00
2023-09-10T07:24:44.215Z,100680.00
2023-09-10T07:27:11.578Z,100685.00
2023-09-10T07:29:38.698Z,100687.00
2023-09-10T07:32:06.274Z,100672.00
2023-09-10T07:34:33.525Z,100679.00
2023-09-10T07:37:00.717Z,100678.00
2023-09-10T07:39:32.338Z,100679.00
2023-09-10T07:42:00.311Z,100679.00
2023-09-10T07:44:27.380Z,100677.00
2023-09-10T07:46:54.397Z,100671.00
2023-09-10T07:49:21.701Z,100678.00
2023-09-10T07:51:49.055Z,100679.00
2023-09-10T07:54:16.227Z,100677.00
2023-09-10T07:56:44.236Z,100686.00
2023-09-10T07:59:13.340Z,100680.00
2023-09-10T08:01:40.803Z,100680.00
2023-09-10T08:04:08.918Z,100673.00
2023-09-10T08:06:36.314Z,100677.00
2023-09-10T08:09:04.553Z,100669.00
2023-09-10T08:11:33.854Z,100677.00
2023-09-10T08:14:01.259Z,100661.00
2023-09-10T08:16:28.571Z,100667.00
2023-09-10T08:18:55.552Z,100675.00
2023-09-10T08:21:22.893Z,100668.00
2023-09-10T08:23:50.293Z,100677.00
2023-09-10T08:26:17.446Z,100668.00
2023-09-10T08:28:44.971Z,100668.00
2023-09-10T08:31:12.276Z,100667.00
2023-09-10T08:33:39.373Z,100671.00
2023-09-10T08:36:06.633Z,100671.00
2023-09-10T08:38:33.933Z,100662.00
2023-09-10T08:41:01.487Z,100669.00
2023-09-10T08:43:57.157Z,100671.00
2023-09-10T08:46:31.889Z,100666.00
2023-09-10T08:49:01.123Z,100665.00
2023-09-10T08:51:30.066Z,100668.00
2023-09-10T08:54:01.108Z,100651.00
2023-09-10T08:56:28.440Z,100659.00
2023-09-10T08:58:58.671Z,100659.00
2023-09-10T09:01:26.527Z,100655.00
2023-09-10T09:03:54.137Z,100659.00
2023-09-10T09:06:22.696Z,100654.00
2023-09-10T09:08:56.096Z,100660.00
2023-09-10T09:11:27.479Z,100654.00
2023-09-10T09:13:58.367Z,100655.00
2023-09-10T09:16:25.796Z,100650.00
2023-09-10T09:18:53.672Z,100649.00
2023-09-10T09:21:25.013Z,100654.00
2023-09-10T09:24:03.152Z,100655.00
2023-09-10T09:26:31.768Z,100645.00
2023-09-10T09:28:59.811Z,100651.00
2023-09-10T09:31:27.540Z,100596.00
2023-09-10T09:33:55.468Z,100643.00
2023-09-10T09:36:28.931Z,100641.00
2023-09-10T09:38:58.165Z,100643.00
2023-09-10T09:41:25.684Z,100646.00
2023-09-10T09:43:53.287Z,100646.00
2023-09-10T09:46:22.186Z,100637.00
2023-09-10T09:48:49.498Z,100633.00
2023-09-10T09:51:17.324Z,100616.00
2023-09-10T09:53:45.644Z,100631.00
2023-09-10T09:56:17.357Z,100631.00
2023-09-10T09:58:47.726Z,100623.00
2023-09-10T10:01:14.800Z,100615.00
2023-09-10T10:03:42.333Z,100620.00
2023-09-10T10:06:09.697Z,100622.00
2023-09-10T10:08:39.060Z,100615.00
2023-09-10T10:11:06.618Z,100626.00
2023-09-10T10:13:35.149Z,100619.00
2023-09-10T10:16:03.995Z,100609.00
2023-09-10T10:18:31.948Z,100588.00
2023-09-10T10:21:00.494Z,100618.00
2023-09-10T10:23:28.811Z,100615.00
2023-09-10T10:26:01.633Z,100609.00
2023-09-10T10:28:29.161Z,100614.00
2023-09-10T10:31:12.194Z,100615.00
2023-09-10T10:34:07.057Z,100616.00
2023-09-10T10:37:00.779Z,100612.00
2023-09-10T10:39:50.000Z,100609.00
2023-09-10T10:42:26.458Z,100614.00
2023-09-10T10:44:54.064Z,100616.00
2023-09-10T10:47:25.373Z,100609.00
2023-09-10T10:49:55.393Z,100613.00
2023-09-10T10:52:30.709Z,100608.00
2023-09-10T10:54:58.949Z,100608.00
2023-09-10T10:57:29.190Z,100616.00
2023-09-10T10:59:56.546Z,100615.00
2023-09-10T11:02:25.058Z,100621.00
2023-09-10T11:05:02.900Z,100613.00
2023-09-10T11:07:32.575Z,100606.00
2023-09-10T11:10:30.768Z,100611.00
2023-09-10T11:13:09.805Z,100608.00
2023-09-10T11:15:37.250Z,100614.00
2023-09-10T11:18:38.740Z,100616.00
2023-09-10T11:21:14.874Z,100610.00
2023-09-10T11:23:57.677Z,100611.00
2023-09-10T11:26:24.675Z,100614.00
2023-09-10T11:28:59.232Z,100608.00
2023-09-10T11:31:37.427Z,100608.00
2023-09-10T11:34:19.602Z,100616.00
2023-09-10T11:36:56.273Z,100611.00
2023-09-10T11:39:23.914Z,100609.00
2023-09-10T11:41:56.798Z,100608.00
2023-09-10T11:44:24.228Z,100608.00
2023-09-10T11:46:55.839Z,100606.00
2023-09-10T11:49:26.085Z,100610.00
2023-09-10T11:51:57.147Z,100606.00
2023-09-10T11:54:24.789Z,100605.00
2023-09-10T11:56:56.866Z,100599.00
2023-09-10T11:59:28.511Z,100590.00
2023-09-10T12:01:56.921Z,100601.00
2023-09-10T12:04:34.610Z,100602.00
2023-09-10T12:07:03.896Z,100596.00
2023-09-10T12:09:32.540Z,100588.00
2023-09-10T12:12:18.287Z,100593.00
2023-09-10T12:14:45.596Z,100591.00
2023-09-10T12:17:13.323Z,100587.00
2023-09-10T12:19:41.981Z,100588.00
2023-09-10T12:22:12.102Z,100581.00
2023-09-10T12:24:40.114Z,100588.00
2023-09-10T12:27:07.737Z,100588.00
2023-09-10T12:29:36.023Z,100589.00
2023-09-10T12:32:04.332Z,100587.00
2023-09-10T12:34:31.619Z,100583.00
2023-09-10T12:37:02.064Z,100583.00
2023-09-10T12:39:29.295Z,100579.00
2023-09-10T12:42:03.039Z,100576.00
2023-09-10T12:44:32.629Z,100578.00
2023-09-10T12:47:00.597Z,100573.00
2023-09-10T12:49:28.137Z,100559.00
2023-09-10T12:51:55.562Z,100571.00
2023-09-10T12:54:22.667Z,100567.00
2023-09-10T12:56:53.241Z,100560.00
2023-09-10T12:59:22.452Z,100530.00
2023-09-10T13:01:51.197Z,100561.00
2023-09-10T13:04:19.467Z,100559.00
2023-09-10T13:06:46.961Z,100558.00
2023-09-10T13:09:14.547Z,100557.00
2023-09-10T13:11:43.056Z,100566.00
2023-09-10T13:14:10.027Z,100548.00
2023-09-10T13:16:37.597Z,100553.00
2023-09-10T13:19:05.068Z,100558.00
2023-09-10T13:21:32.460Z,100572.00
2023-09-10T13:23:59.466Z,100554.00
2023-09-10T13:26:26.911Z,100549.00
2023-09-10T13:28:54.503Z,100554.00
2023-09-10T13:31:22.803Z,100556.00
2023-09-10T13:33:51.697Z,100554.00
2023-09-10T13:36:18.797Z,100549.00
2023-09-10T13:38:46.043Z,100552.00
2023-09-10T13:41:13.335Z,100548.00
2023-09-10T13:43:41.166Z,100553.00
2023-09-10T13:46:09.155Z,100545.00
2023-09-10T13:48:36.294Z,100523.00
2023-09-10T13:51:03.645Z,100549.00
2023-09-10T13:53:31.617Z,100545.00
2023-09-10T13:55:59.028Z,100539.00
2023-09-10T13:58:26.292Z,100537.00
2023-09-10T14:00:53.459Z,100550.00
2023-09-10T14:03:27.550Z,100552.00
2023-09-10T14:05:56.338Z,100537.00
2023-09-10T14:08:23.562Z,100542.00
2023-09-10T14:10:50.837Z,100545.00
2023-09-10T14:13:19.025Z,100527.00
2023-09-10T14:15:46.435Z,100529.00
2023-09-10T14:18:13.914Z,100539.00
2023-09-10T14:20:41.298Z,100538.00
2023-09-10T14:23:08.704Z,100539.00
2023-09-10T14:25:35.953Z,100544.00
2023-09-10T14:28:03.256Z,100549.00
2023-09-10T14:30:30.594Z,100552.00
2023-09-10T14:32:57.823Z,100542.00
2023-09-10T14:35:25.116Z,100547.00
2023-09-10T14:37:52.143Z,100545.00
2023-09-10T14:40:19.628Z,100541.00
2023-09-10T14:42:46.756Z,100535.00
2023-09-10T14:45:14.037Z,100544.00
2023-09-10T14:47:41.077Z,100540.00
2023-09-10T14:50:14.331Z,100533.00
2023-09-10T14:52:45.187Z,100529.00
2023-09-10T14:55:13.618Z,100535.00
2023-09-10T14:57:40.912Z,100532.00
2023-09-10T15:00:08.628Z,100533.00
2023-09-10T15:02:38.237Z,100527.00
2023-09-10T15:05:10.656Z,100527.00
2023-09-10T15:07:37.925Z,100524.00
2023-09-10T15:10:05.873Z,100518.00
2023-09-10T15:12:32.921Z,100522.00
2023-09-10T15:15:00.127Z,100517.00
2023-09-10T15:17:28.026Z,100523.00
2023-09-10T15:19:55.318Z,100518.00
2023-09-10T15:22:22.515Z,100510.00
2023-09-10T15:24:49.679Z,100506.00
2023-09-10T15:27:16.872Z,100505.00
2023-09-10T15:29:43.951Z,100503.00
2023-09-10T15:32:11.027Z,100502.00
2023-09-10T15:34:38.191Z,100493.00
2023-09-10T15:37:05.428Z,100466.00
2023-09-10T15:39:32.881Z,100498.00
2023-09-10T15:42:00.108Z,100502.00
2023-09-10T15:44:27.343Z,100500.00
2023-09-10T15:46:54.685Z,100504.00
2023-09-10T15:49:22.044Z,100497.00
2023-09-10T15:51:50.565Z,100485.00
2023-09-10T15:54:18.295Z,100491.00
2023-09-10T15:56:46.116Z,100479.00
2023-09-10T15:59:15.043Z,100492.00
2023-09-10T16:01:42.215Z,100495.00
2023-09-10T16:04:09.901Z,100489.00
2023-09-10T16:06:38.125Z,100491.00
2023-09-10T16:09:07.113Z,100502.00
2023-09-10T16:11:35.234Z,100477.00
2023-09-10T16:14:02.436Z,100491.00
2023-09-10T16:16:29.673Z,100495.00
2023-09-10T16:18:59.997Z,100499.00
2023-09-10T16:21:31.138Z,100503.00
2023-09-10T16:23:58.342Z,100509.00
2023-09-10T16:26:25.493Z,100503.00
2023-09-10T16:28:52.522Z,100505.00
2023-09-10T16:31:19.634Z,100500.00
2023-09-10T16:33:46.712Z,100505.00
2023-09-10T16:36:13.680Z,100499.00
2023-09-10T16:38:40.983Z,100500.00
2023-09-10T16:41:08.407Z,100510.00
2023-09-10T16:43:35.527Z,100495.00
2023-09-10T16:46:02.632Z,100503.00
2023-09-10T16:48:29.880Z,100505.00
2023-09-10T16:50:58.181Z,100513.00
2023-09-10T16:53:25.507Z,100504.00
2023-09-10T16:55:54.123Z,100483.00
2023-09-10T16:58:23.973Z,100508.00
2023-09-10T17:00:51.543Z,100517.00
2023-09-10T17:03:18.818Z,100515.00
2023-09-10T17:05:46.197Z,100523.00
2023-09-10T17:08:13.337Z,100520.00
2023-09-10T17:10:41.436Z,100508.00
2023-09-10T17:13:08.793Z,100517.00
2023-09-10T17:15:37.793Z,100502.00
2023-09-10T17:18:05.646Z,100517.00
2023-09-10T17:20:35.006Z,100515.00
2023-09-10T17:23:02.205Z,100507.00
2023-09-10T17:25:29.657Z,100508.00
2023-09-10T17:27:58.383Z,100500.00
2023-09-10T17:30:26.118Z,100509.00
2023-09-10T17:32:58.594Z,100504.00
2023-09-10T17:35:26.046Z,100499.00
2023-09-10T17:37:54.872Z,100494.00
2023-09-10T17:40:23.598Z,100488.00
2023-09-10T17:42:50.649Z,100494.00
2023-09-10T17:45:17.933Z,100511.00
2023-09-10T17:47:45.298Z,100503.00
2023-09-10T17:50:12.434Z,100508.00
2023-09-10T17:52:39.537Z,100506.00
2023-09-10T17:55:07.210Z,100498.00
2023-09-10T17:57:35.114Z,100494.00
2023-09-10T18:00:04.524Z,100499.00
2023-09-10T18:02:32.451Z,100505.00
2023-09-10T18:05:01.284Z,100498.00
2023-09-10T18:07:28.806Z,100491.00
2023-09-10T18:09:56.246Z,100487.00
2023-09-10T18:12:23.887Z,100490.00
2023-09-10T18:14:52.066Z,100482.00
2023-09-10T18:17:22.310Z,100495.00
2023-09-10T18:19:49.825Z,100484.00
2023-09-10T18:22:17.931Z,100492.00
2023-09-10T18:24:45.782Z,100489.00
2023-09-10T18:27:12.969Z,100480.00
2023-09-10T18:29:41.432Z,100505.00
2023-09-10T18:32:09.019Z,100491.00
2023-09-10T18:34:36.197Z,100501.00
2023-09-10T18:37:04.041Z,100497.00
2023-09-10T18:39:31.333Z,100500.00
2023-09-10T18:41:59.551Z,100496.00
2023-09-10T18:44:27.742Z,100503.00
2023-09-10T18:46:56.551Z,100496.00
2023-09-10T18:49:24.516Z,100498.00
2023-09-10T18:52:09.911Z,100496.00
2023-09-10T18:54:40.282Z,100499.00
2023-09-10T18:57:09.700Z,100503.00
2023-09-10T18:59:37.088Z,100500.00
2023-09-10T19:02:04.886Z,100500.00
2023-09-10T19:04:35.107Z,100503.00
2023-09-10T19:07:02.905Z,100501.00
2023-09-10T19:09:31.374Z,100497.00
2023-09-10T19:11:58.843Z,100491.00
2023-09-10T19:14:26.846Z,100502.00
2023-09-10T19:16:54.239Z,100504.00
2023-09-10T19:19:21.964Z,100501.00
2023-09-10T19:21:49.089Z,100501.00
2023-09-10T19:24:16.546Z,100504.00
2023-09-10T19:26:44.043Z,100501.00
2023-09-10T19:29:11.551Z,100496.00
2023-09-10T19:31:38.959Z,100501.00
2023-09-10T19:34:06.229Z,100502.00
2023-09-10T19:36:35.758Z,100491.00
2023-09-10T19:39:13.820Z,100504.00
2023-09-10T19:41:41.287Z,100500.00
2023-09-10T19:44:09.366Z,100506.00
2023-09-10T19:46:37.893Z,100504.00
2023-09-10T19:49:06.762Z,100506.00
2023-09-10T19:51:33.946Z,100519.00
2023-09-10T19:54:01.533Z,100472.00
2023-09-10T19:56:29.099Z,100508.00
2023-09-10T19:59:11.879Z,100508.00
2023-09-10T20:01:44.317Z,100516.00
2023-09-10T20:04:13.121Z,100518.00
2023-09-10T20:06:47.455Z,100526.00
2023-09-10T20:09:14.691Z,100520.00
2023-09-10T20:11:43.325Z,100502.00
2023-09-10T20:14:10.818Z,100512.00
2023-09-10T20:16:38.762Z,100512.00
2023-09-10T20:19:06.300Z,100513.00
2023-09-10T20:21:33.451Z,100503.00
2023-09-10T20:24:02.523Z,100513.00
2023-09-10T20:26:31.436Z,100519.00
2023-09-10T20:28:59.022Z,100507.00
2023-09-10T20:31:26.773Z,100509.00
2023-09-10T20:33:54.283Z,100519.00
2023-09-10T20:36:21.714Z,100516.00
2023-09-10T20:38:49.123Z,100511.00
2023-09-10T20:41:17.962Z,100513.00
2023-09-10T20:43:46.286Z,100513.00
2023-09-10T20:46:15.174Z,100506.00
2023-09-10T20:48:42.625Z,100503.00
2023-09-10T20:51:10.732Z,100505.00
2023-09-10T20:53:39.356Z,100506.00
2023-09-10T20:56:06.885Z,100497.00
2023-09-10T20:58:34.507Z,100495.00
2023-09-10T21:01:02.067Z,100498.00
2023-09-10T21:03:32.461Z,100502.00
2023-09-10T21:06:00.904Z,100498.00
2023-09-10T21:08:29.449Z,100502.00
2023-09-10T21:10:58.441Z,100498.00
2023-09-10T21:13:26.085Z,100497.00
2023-09-10T21:15:53.864Z,100502.00
2023-09-10T21:18:21.323Z,100496.00
2023-09-10T21:20:49.489Z,100494.00
2023-09-10T21:23:17.411Z,100493.00
2023-09-10T21:25:44.634Z,100503.00
2023-09-10T21:28:12.153Z,100490.00
2023-09-10T21:30:39.431Z,100492.00
2023-09-10T21:33:06.964Z,100492.00
2023-09-10T21:35:34.451Z,100480.00
2023-09-10T21:38:01.740Z,100490.00
2023-09-10T21:40:29.037Z,100490.00
2023-09-10T21:42:56.224Z,100492.00
2023-09-10T21:45:23.503Z,100491.00
2023-09-10T21:47:52.801Z,100482.00
2023-09-10T21:50:20.075Z,100478.00
2023-09-10T21:52:47.062Z,100483.00
2023-09-10T21:55:14.107Z,100477.00
2023-09-10T21:57:41.598Z,100467.00
2023-09-10T22:00:09.815Z,100419.00
2023-09-10T22:02:37.166Z,100464.00
2023-09-10T22:05:04.795Z,100463.00
2023-09-10T22:07:32.522Z,100476.00
2023-09-10T22:09:59.714Z,100462.00
2023-09-10T22:12:26.865Z,100470.00
2023-09-10T22:15:06.389Z,100466.00
2023-09-10T22:17:33.503Z,100464.00
2023-09-10T22:20:00.576Z,100468.00
2023-09-10T22:22:27.837Z,100456.00
2023-09-10T22:24:55.207Z,100465.00
2023-09-10T22:27:22.856Z,100456.00
2023-09-10T22:29:50.575Z,100453.00
2023-09-10T22:32:18.364Z,100442.00
2023-09-10T22:34:45.832Z,100457.00
2023-09-10T22:37:13.752Z,100446.00
2023-09-10T22:39:40.973Z,100442.00
2023-09-10T22:42:09.262Z,100449.00
2023-09-10T22:44:36.583Z,100444.00
2023-09-10T22:47:03.969Z,100449.00
2023-09-10T22:49:32.712Z,100442.00
2023-09-10T22:52:00.321Z,100424.00
2023-09-10T22:54:27.857Z,100434.00
2023-09-10T22:56:55.012Z,100430.00
2023-09-10T22:59:23.720Z,100442.00
2023-09-10T23:01:50.884Z,100398.00
2023-09-10T23:04:18.419Z,100435.00
2023-09-10T23:06:47.141Z,100432.00
2023-09-10T23:09:14.367Z,100425.00
2023-09-10T23:11:41.682Z,100422.00
2023-09-10T23:14:09.931Z,100430.00
2023-09-10T23:16:37.580Z,100436.00
2023-09-10T23:19:04.788Z,100426.00
2023-09-10T23:21:31.965Z,100432.00
2023-09-10T23:23:59.539Z,100424.00
2023-09-10T23:26:27.160Z,100423.00
2023-09-10T23:28:54.273Z,100439.00
2023-09-10T23:31:21.753Z,100415.00
2023-09-10T23:33:49.145Z,100418.00
2023-09-10T23:36:17.493Z,100422.00
2023-09-10T23:38:44.859Z,100424.00
2023-09-10T23:41:12.448Z,100413.00
2023-09-10T23:43:40.044Z,100410.00
2023-09-10T23:46:08.678Z,100410.00
2023-09-10T23:48:36.732Z,100395.00
2023-09-10T23:51:04.106Z,100399.00
2023-09-10T23:53:34.177Z,100399.00
2023-09-10T23:56:01.276Z,100398.00
2023-09-10T23:58:32.014Z,100401.00
